createdAt,value
2023-05-19T00:01:31.256Z,102306.63
2023-05-19T00:04:18.464Z,102304.41
2023-05-19T00:07:08.383Z,102301.64
2023-05-19T00:09:55.106Z,102304.40
2023-05-19T00:12:42.981Z,102301.36
2023-05-19T00:15:29.653Z,102302.74
2023-05-19T00:18:16.823Z,102303.30
2023-05-19T00:21:03.376Z,102301.60
2023-05-19T00:23:50.018Z,102303.06
2023-05-19T00:26:37.251Z,102302.66
2023-05-19T00:29:24.530Z,102295.83
2023-05-19T00:32:12.187Z,102295.42
2023-05-19T00:34:59.912Z,102294.14
2023-05-19T00:37:46.725Z,102292.95
2023-05-19T00:40:36.293Z,102293.98
2023-05-19T00:43:22.931Z,102295.02
2023-05-19T00:46:11.071Z,102293.16
2023-05-19T00:48:57.626Z,102295.26
2023-05-19T00:51:44.319Z,102289.86
2023-05-19T00:54:31.428Z,102290.52
2023-05-19T00:57:18.053Z,102296.66
2023-05-19T01:00:05.785Z,102298.19
2023-05-19T01:02:52.622Z,102291.64
2023-05-19T01:05:41.786Z,102291.48
2023-05-19T01:08:31.683Z,102295.52
2023-05-19T01:11:17.888Z,102293.23
2023-05-19T01:14:04.380Z,102291.24
2023-05-19T01:16:57.455Z,102289.21
2023-05-19T01:19:56.374Z,102290.84
2023-05-19T01:23:05.183Z,102294.60
2023-05-19T01:25:51.652Z,102292.71
2023-05-19T01:28:49.916Z,102291.65
2023-05-19T01:31:38.572Z,102294.83
2023-05-19T01:34:27.133Z,102279.84
2023-05-19T01:37:16.267Z,102291.31
2023-05-19T01:40:02.774Z,102290.58
2023-05-19T01:42:54.667Z,102295.86
2023-05-19T01:45:42.989Z,102294.16
2023-05-19T01:48:30.738Z,102296.48
2023-05-19T01:51:17.377Z,102290.64
2023-05-19T01:54:03.878Z,102295.02
2023-05-19T01:57:04.283Z,102291.02
2023-05-19T02:00:20.544Z,102292.48
2023-05-19T02:03:22.706Z,102292.38
2023-05-19T02:06:37.086Z,102286.95
2023-05-19T02:09:33.388Z,102291.80
2023-05-19T02:12:34.619Z,102291.86
2023-05-19T02:15:25.970Z,102292.95
2023-05-19T02:18:14.108Z,102284.98
2023-05-19T02:21:02.376Z,102294.58
2023-05-19T02:23:48.963Z,102282.84
2023-05-19T02:26:35.243Z,102289.41
2023-05-19T02:29:23.865Z,102287.33
2023-05-19T02:32:11.842Z,102285.86
2023-05-19T02:35:00.191Z,102287.23
2023-05-19T02:37:46.685Z,102285.08
2023-05-19T02:40:34.099Z,102284.34
2023-05-19T02:43:20.946Z,102280.27
2023-05-19T02:46:07.488Z,102282.13
2023-05-19T02:48:54.052Z,102279.55
2023-05-19T02:51:40.781Z,102275.96
2023-05-19T02:54:27.169Z,102272.83
2023-05-19T02:57:13.739Z,102273.66
2023-05-19T03:00:00.778Z,102271.09
2023-05-19T03:02:47.547Z,102271.95
2023-05-19T03:05:33.934Z,102272.81
2023-05-19T03:08:20.791Z,102274.54
2023-05-19T03:11:07.381Z,102276.55
2023-05-19T03:13:53.812Z,102280.11
2023-05-19T03:16:42.268Z,102282.42
2023-05-19T03:19:29.277Z,102281.65
2023-05-19T03:22:15.740Z,102279.78
2023-05-19T03:25:02.492Z,102278.98
2023-05-19T03:27:49.262Z,102276.31
2023-05-19T03:30:35.716Z,102278.08
2023-05-19T03:33:29.983Z,102277.92
2023-05-19T03:36:17.517Z,102277.70
2023-05-19T03:39:04.463Z,102271.85
2023-05-19T03:41:51.401Z,102268.23
2023-05-19T03:44:37.990Z,102273.95
2023-05-19T03:47:24.951Z,102273.95
2023-05-19T03:50:22.857Z,102276.48
2023-05-19T03:53:16.220Z,102280.02
2023-05-19T03:56:02.934Z,102280.58
2023-05-19T03:58:50.061Z,102278.98
2023-05-19T04:01:36.736Z,102278.88
2023-05-19T04:04:23.654Z,102280.20
2023-05-19T04:07:10.450Z,102288.73
2023-05-19T04:09:57.493Z,102293.31
2023-05-19T04:12:43.868Z,102295.91
2023-05-19T04:15:30.370Z,102283.15
2023-05-19T04:18:16.928Z,102290.07
2023-05-19T04:21:03.777Z,102288.12
2023-05-19T04:23:50.367Z,102273.45
2023-05-19T04:26:38.443Z,102291.66
2023-05-19T04:29:24.803Z,102288.35
2023-05-19T04:32:11.751Z,102285.55
2023-05-19T04:34:59.049Z,102292.30
2023-05-19T04:37:46.382Z,102295.77
2023-05-19T04:40:33.840Z,102292.90
2023-05-19T04:43:22.357Z,102297.08
2023-05-19T04:46:13.191Z,102299.91
2023-05-19T04:49:01.365Z,102294.69
2023-05-19T04:51:51.079Z,102289.98
2023-05-19T04:54:41.960Z,102293.05
2023-05-19T04:57:30.109Z,102289.12
2023-05-19T05:00:17.432Z,102298.69
2023-05-19T05:03:24.472Z,102297.61
2023-05-19T05:06:11.732Z,102299.14
2023-05-19T05:08:58.127Z,102298.30
2023-05-19T05:11:45.169Z,102296.15
2023-05-19T05:14:31.774Z,102294.27
2023-05-19T05:17:19.137Z,102296.08
2023-05-19T05:20:06.978Z,102295.30
2023-05-19T05:22:54.145Z,102300.86
2023-05-19T05:25:41.812Z,102292.35
2023-05-19T05:28:28.514Z,102304.09
2023-05-19T05:31:16.232Z,102301.09
2023-05-19T05:34:03.153Z,102299.68
2023-05-19T05:36:51.174Z,102297.05
2023-05-19T05:39:38.120Z,102293.00
2023-05-19T05:42:25.321Z,102289.56
2023-05-19T05:45:12.915Z,102291.36
2023-05-19T05:48:01.003Z,102289.27
2023-05-19T05:50:49.125Z,102293.23
2023-05-19T05:53:43.364Z,102293.02
2023-05-19T05:56:30.791Z,102295.11
2023-05-19T05:59:17.795Z,102293.08
2023-05-19T06:02:05.176Z,102292.98
2023-05-19T06:04:54.252Z,102287.77
2023-05-19T06:07:41.659Z,102285.23
2023-05-19T06:10:29.379Z,102291.95
2023-05-19T06:13:18.923Z,102293.25
2023-05-19T06:16:06.241Z,102294.95
2023-05-19T06:18:59.045Z,102289.64
2023-05-19T06:21:45.861Z,102287.66
2023-05-19T06:24:32.750Z,102288.84
2023-05-19T06:27:19.468Z,102294.49
2023-05-19T06:30:08.797Z,102297.48
2023-05-19T06:33:01.740Z,102294.62
2023-05-19T06:35:48.400Z,102305.01
2023-05-19T06:38:34.861Z,102307.08
2023-05-19T06:41:21.968Z,102303.44
2023-05-19T06:44:11.634Z,102304.58
2023-05-19T06:46:58.191Z,102301.27
2023-05-19T06:49:45.828Z,102295.45
2023-05-19T06:52:33.268Z,102296.88
2023-05-19T06:55:20.210Z,102298.27
2023-05-19T06:58:08.364Z,102296.66
2023-05-19T07:00:54.933Z,102298.45
2023-05-19T07:03:42.575Z,102295.13
2023-05-19T07:06:31.422Z,102302.30
2023-05-19T07:09:18.333Z,102292.30
2023-05-19T07:12:06.411Z,102302.39
2023-05-19T07:14:53.687Z,102308.27
2023-05-19T07:17:40.507Z,102313.25
2023-05-19T07:20:28.458Z,102312.74
2023-05-19T07:23:17.362Z,102310.77
2023-05-19T07:26:05.761Z,102314.08
2023-05-19T07:28:52.801Z,102317.84
2023-05-19T07:31:39.427Z,102315.95
2023-05-19T07:34:26.444Z,102312.26
2023-05-19T07:37:12.709Z,102316.66
2023-05-19T07:39:59.443Z,102314.70
2023-05-19T07:42:46.058Z,102317.63
2023-05-19T07:45:32.577Z,102312.40
2023-05-19T07:48:22.503Z,102308.80
2023-05-19T07:51:10.295Z,102309.85
2023-05-19T07:53:57.508Z,102305.10
2023-05-19T07:56:43.830Z,102302.09
2023-05-19T07:59:30.491Z,102299.31
2023-05-19T08:02:17.333Z,102298.98
2023-05-19T08:05:04.652Z,102301.17
2023-05-19T08:07:51.765Z,102297.89
2023-05-19T08:10:38.309Z,102303.95
2023-05-19T08:13:24.615Z,102297.52
2023-05-19T08:16:10.762Z,102293.14
2023-05-19T08:18:57.235Z,102291.33
2023-05-19T08:21:44.741Z,102282.22
2023-05-19T08:24:32.878Z,102283.84
2023-05-19T08:27:19.418Z,102281.52
2023-05-19T08:30:06.724Z,102284.33
2023-05-19T08:32:52.967Z,102287.21
2023-05-19T08:35:39.553Z,102295.05
2023-05-19T08:38:26.637Z,102292.92
2023-05-19T08:41:13.139Z,102292.81
2023-05-19T08:43:59.806Z,102291.52
2023-05-19T08:46:47.835Z,102289.58
2023-05-19T08:49:42.384Z,102288.44
2023-05-19T08:52:42.502Z,102290.62
2023-05-19T08:55:42.156Z,102291.33
2023-05-19T08:58:29.282Z,102286.99
2023-05-19T09:01:19.260Z,102287.89
2023-05-19T09:04:07.256Z,102284.68
2023-05-19T09:06:54.190Z,102283.39
2023-05-19T09:09:43.754Z,102279.21
2023-05-19T09:12:30.368Z,102280.64
2023-05-19T09:15:20.894Z,102280.52
2023-05-19T09:18:12.666Z,102275.13
2023-05-19T09:21:03.141Z,102268.65
2023-05-19T09:23:50.148Z,102277.04
2023-05-19T09:26:41.262Z,102271.26
2023-05-19T09:29:27.861Z,102263.05
2023-05-19T09:32:25.149Z,102262.69
2023-05-19T09:35:17.183Z,102263.78
2023-05-19T09:38:03.791Z,102264.80
2023-05-19T09:40:50.068Z,102264.80
2023-05-19T09:43:36.854Z,102258.94
2023-05-19T09:46:29.935Z,102265.56
2023-05-19T09:49:31.320Z,102268.93
2023-05-19T09:52:18.312Z,102265.41
2023-05-19T09:55:06.869Z,102266.15
2023-05-19T09:57:56.240Z,102262.36
2023-05-19T10:00:43.322Z,102267.55
2023-05-19T10:03:32.583Z,102260.79
2023-05-19T10:06:19.994Z,102259.88
2023-05-19T10:09:06.375Z,102256.52
2023-05-19T10:11:56.628Z,102255.60
2023-05-19T10:14:43.349Z,102249.67
2023-05-19T10:17:30.519Z,102259.08
2023-05-19T10:20:17.895Z,102254.03
2023-05-19T10:23:04.366Z,102254.00
2023-05-19T10:25:55.456Z,102266.73
2023-05-19T10:28:44.590Z,102264.41
2023-05-19T10:31:34.182Z,102265.05
2023-05-19T10:34:33.325Z,102268.61
2023-05-19T10:37:37.762Z,102263.69
2023-05-19T10:40:37.125Z,102267.45
2023-05-19T10:43:54.570Z,102272.57
2023-05-19T10:46:43.066Z,102259.56
2023-05-19T10:49:35.572Z,102262.44
2023-05-19T10:52:25.704Z,102261.64
2023-05-19T10:55:17.713Z,102258.35
2023-05-19T10:58:04.614Z,102272.45
2023-05-19T11:01:00.697Z,102266.88
2023-05-19T11:03:57.318Z,102269.80
2023-05-19T11:06:51.931Z,102279.25
2023-05-19T11:09:40.931Z,102280.85
2023-05-19T11:12:27.957Z,102285.19
2023-05-19T11:15:15.722Z,102290.73
2023-05-19T11:18:04.577Z,102288.41
2023-05-19T11:20:58.397Z,102290.55
2023-05-19T11:23:45.227Z,102287.39
2023-05-19T11:26:43.325Z,102290.04
2023-05-19T11:29:32.877Z,102286.30
2023-05-19T11:32:22.780Z,102293.21
2023-05-19T11:35:10.267Z,102292.50
2023-05-19T11:37:57.566Z,102292.59
2023-05-19T11:40:44.497Z,102294.31
2023-05-19T11:43:31.216Z,102296.77
2023-05-19T11:46:18.083Z,102293.88
2023-05-19T11:49:05.838Z,102286.66
2023-05-19T11:51:52.528Z,102292.15
2023-05-19T11:54:41.902Z,102289.83
2023-05-19T11:57:28.507Z,102288.71
2023-05-19T12:00:15.765Z,102287.89
2023-05-19T12:03:02.025Z,102292.67
2023-05-19T12:05:49.692Z,102291.35
2023-05-19T12:08:37.540Z,102286.67
2023-05-19T12:11:24.411Z,102294.73
2023-05-19T12:14:12.323Z,102292.64
2023-05-19T12:16:59.510Z,102291.55
2023-05-19T12:19:48.061Z,102296.77
2023-05-19T12:22:35.490Z,102294.75
2023-05-19T12:25:23.263Z,102295.95
2023-05-19T12:28:10.075Z,102292.94
2023-05-19T12:30:58.534Z,102296.27
2023-05-19T12:33:48.633Z,102295.56
2023-05-19T12:36:35.367Z,102292.48
2023-05-19T12:39:23.367Z,102293.05
2023-05-19T12:42:12.458Z,102288.62
2023-05-19T12:45:01.567Z,102279.88
2023-05-19T12:47:51.358Z,102279.81
2023-05-19T12:50:38.433Z,102287.52
2023-05-19T12:53:27.648Z,102287.73
2023-05-19T12:56:15.528Z,102284.00
2023-05-19T12:59:02.331Z,102279.86
2023-05-19T13:01:59.361Z,102282.40
2023-05-19T13:04:46.244Z,102274.79
2023-05-19T13:07:33.249Z,102268.36
2023-05-19T13:10:20.726Z,102270.44
2023-05-19T13:13:08.440Z,102262.17
2023-05-19T13:15:55.675Z,102266.14
2023-05-19T13:18:42.478Z,102260.73
2023-05-19T13:21:28.628Z,102262.75
2023-05-19T13:24:15.624Z,102262.29
2023-05-19T13:27:03.292Z,102259.14
2023-05-19T13:29:49.765Z,102260.10
2023-05-19T13:32:36.269Z,102260.62
2023-05-19T13:35:23.341Z,102254.80
2023-05-19T13:38:10.826Z,102256.10
2023-05-19T13:40:58.074Z,102257.52
2023-05-19T13:43:44.799Z,102258.25
2023-05-19T13:46:44.170Z,102254.40
2023-05-19T13:49:31.611Z,102261.13
2023-05-19T13:52:19.099Z,102260.98
2023-05-19T13:55:07.543Z,102260.02
2023-05-19T13:57:54.143Z,102254.28
2023-05-19T14:00:41.591Z,102255.73
2023-05-19T14:03:28.128Z,102262.18
2023-05-19T14:06:14.751Z,102257.70
2023-05-19T14:09:01.504Z,102257.83
2023-05-19T14:11:47.891Z,102253.85
2023-05-19T14:14:34.277Z,102245.34
2023-05-19T14:17:21.205Z,102245.33
2023-05-19T14:20:08.496Z,102245.60
2023-05-19T14:22:55.592Z,102253.52
2023-05-19T14:25:42.847Z,102252.55
2023-05-19T14:28:29.711Z,102251.85
2023-05-19T14:31:16.368Z,102251.50
2023-05-19T14:34:03.185Z,102257.25
2023-05-19T14:36:49.717Z,102260.56
2023-05-19T14:39:36.141Z,102254.29
2023-05-19T14:42:23.454Z,102259.02
2023-05-19T14:45:11.213Z,102260.03
2023-05-19T14:47:58.255Z,102256.48
2023-05-19T14:50:44.821Z,102253.27
2023-05-19T14:53:31.305Z,102255.60
2023-05-19T14:56:17.936Z,102253.23
2023-05-19T14:59:05.032Z,102255.84
2023-05-19T15:01:51.867Z,102260.37
2023-05-19T15:04:38.455Z,102264.89
2023-05-19T15:07:25.603Z,102266.02
2023-05-19T15:10:12.421Z,102272.61
2023-05-19T15:13:00.614Z,102276.95
2023-05-19T15:15:46.869Z,102276.99
2023-05-19T15:18:34.231Z,102280.88
2023-05-19T15:21:20.867Z,102280.73
2023-05-19T15:24:07.327Z,102282.52
2023-05-19T15:26:55.521Z,102279.23
2023-05-19T15:29:41.896Z,102278.39
2023-05-19T15:32:28.574Z,102277.31
2023-05-19T15:35:15.218Z,102272.34
2023-05-19T15:38:06.124Z,102267.13
2023-05-19T15:40:53.518Z,102265.17
2023-05-19T15:43:41.462Z,102257.96
2023-05-19T15:46:28.937Z,102263.88
2023-05-19T15:49:15.482Z,102259.75
2023-05-19T15:52:03.155Z,102259.86
2023-05-19T15:54:49.896Z,102261.66
2023-05-19T15:57:36.349Z,102259.56
2023-05-19T16:00:23.661Z,102256.22
2023-05-19T16:03:10.485Z,102258.70
2023-05-19T16:05:57.066Z,102259.09
2023-05-19T16:08:43.678Z,102250.89
2023-05-19T16:11:30.118Z,102250.53
2023-05-19T16:14:16.811Z,102252.19
2023-05-19T16:17:05.116Z,102250.35
2023-05-19T16:19:51.652Z,102249.13
2023-05-19T16:22:38.757Z,102244.89
2023-05-19T16:25:25.957Z,102245.45
2023-05-19T16:28:12.377Z,102235.83
2023-05-19T16:31:00.339Z,102237.98
2023-05-19T16:33:46.989Z,102232.81
2023-05-19T16:36:33.478Z,102231.78
2023-05-19T16:39:20.114Z,102231.76
2023-05-19T16:42:07.032Z,102234.07
2023-05-19T16:44:53.782Z,102234.55
2023-05-19T16:47:40.735Z,102241.74
2023-05-19T16:50:27.690Z,102240.37
2023-05-19T16:53:14.353Z,102233.42
2023-05-19T16:56:00.948Z,102241.55
2023-05-19T16:58:47.410Z,102239.08
2023-05-19T17:01:34.187Z,102235.55
2023-05-19T17:04:21.048Z,102229.23
2023-05-19T17:07:07.920Z,102229.70
2023-05-19T17:09:55.973Z,102227.19
2023-05-19T17:12:42.603Z,102229.95
2023-05-19T17:15:29.129Z,102224.29
2023-05-19T17:18:16.177Z,102226.05
2023-05-19T17:21:05.033Z,102223.67
2023-05-19T17:23:51.941Z,102222.91
2023-05-19T17:26:39.797Z,102225.50
2023-05-19T17:29:27.968Z,102229.30
2023-05-19T17:32:14.501Z,102225.30
2023-05-19T17:35:03.364Z,102228.75
2023-05-19T17:37:50.164Z,102225.41
2023-05-19T17:40:37.054Z,102228.08
2023-05-19T17:43:23.730Z,102227.33
2023-05-19T17:46:12.038Z,102228.96
2023-05-19T17:48:59.035Z,102231.48
2023-05-19T17:51:45.967Z,102231.66
2023-05-19T17:54:33.027Z,102227.14
2023-05-19T17:57:24.686Z,102224.71
2023-05-19T18:00:12.855Z,102224.96
2023-05-19T18:02:59.999Z,102225.80
2023-05-19T18:05:48.162Z,102233.08
2023-05-19T18:08:37.605Z,102234.42
2023-05-19T18:11:24.211Z,102229.69
2023-05-19T18:14:11.122Z,102230.75
2023-05-19T18:16:58.288Z,102230.65
2023-05-19T18:19:44.970Z,102231.07
2023-05-19T18:22:31.475Z,102235.64
2023-05-19T18:25:20.052Z,102225.27
2023-05-19T18:28:06.541Z,102233.07
2023-05-19T18:31:04.952Z,102236.59
2023-05-19T18:33:51.342Z,102241.77
2023-05-19T18:36:38.704Z,102236.26
2023-05-19T18:39:27.299Z,102245.84
2023-05-19T18:42:15.543Z,102246.88
2023-05-19T18:45:01.985Z,102249.57
2023-05-19T18:47:48.910Z,102250.48
2023-05-19T18:50:36.564Z,102252.98
2023-05-19T18:53:25.381Z,102257.79
2023-05-19T18:56:12.799Z,102256.02
2023-05-19T18:58:59.415Z,102255.61
2023-05-19T19:01:46.035Z,102253.21
2023-05-19T19:04:32.977Z,102259.33
2023-05-19T19:07:19.685Z,102258.60
2023-05-19T19:10:09.058Z,102258.13
2023-05-19T19:12:55.354Z,102258.55
2023-05-19T19:15:42.151Z,102256.82
2023-05-19T19:18:28.611Z,102253.87
2023-05-19T19:21:15.446Z,102254.41
2023-05-19T19:24:02.173Z,102257.94
2023-05-19T19:26:48.555Z,102257.13
2023-05-19T19:29:35.562Z,102254.17
2023-05-19T19:32:23.070Z,102254.13
2023-05-19T19:35:09.721Z,102252.05
2023-05-19T19:37:56.702Z,102250.65
2023-05-19T19:40:43.630Z,102251.81
2023-05-19T19:43:30.625Z,102246.62
2023-05-19T19:46:17.150Z,102249.51
2023-05-19T19:49:04.095Z,102249.44
2023-05-19T19:51:51.396Z,102255.13
2023-05-19T19:54:38.125Z,102255.20
2023-05-19T19:57:25.570Z,102257.44
2023-05-19T20:00:13.146Z,102261.63
2023-05-19T20:03:04.463Z,102261.56
2023-05-19T20:05:53.895Z,102264.56
2023-05-19T20:08:40.527Z,102266.84
2023-05-19T20:11:27.594Z,102267.59
2023-05-19T20:14:13.995Z,102263.36
2023-05-19T20:17:00.549Z,102265.55
2023-05-19T20:19:48.324Z,102265.34
2023-05-19T20:22:34.637Z,102264.73
2023-05-19T20:25:21.355Z,102261.70
2023-05-19T20:28:08.612Z,102266.20
2023-05-19T20:30:55.307Z,102270.05
2023-05-19T20:33:42.053Z,102270.95
2023-05-19T20:36:29.167Z,102269.86
2023-05-19T20:39:15.669Z,102271.27
2023-05-19T20:42:01.950Z,102266.35
2023-05-19T20:44:48.443Z,102272.19
2023-05-19T20:47:35.637Z,102275.77
2023-05-19T20:50:22.417Z,102276.32
2023-05-19T20:53:09.368Z,102276.55
2023-05-19T20:55:56.536Z,102275.77
2023-05-19T20:58:43.165Z,102271.41
2023-05-19T21:01:30.072Z,102271.13
2023-05-19T21:04:16.580Z,102266.55
2023-05-19T21:07:03.590Z,102262.20
2023-05-19T21:09:51.602Z,102266.59
2023-05-19T21:12:38.731Z,102260.12
2023-05-19T21:15:25.290Z,102266.11
2023-05-19T21:18:12.639Z,102265.60
2023-05-19T21:21:02.943Z,102263.52
2023-05-19T21:23:49.510Z,102264.50
2023-05-19T21:26:36.085Z,102267.88
2023-05-19T21:29:22.490Z,102263.38
2023-05-19T21:32:09.385Z,102256.35
2023-05-19T21:34:55.881Z,102266.32
2023-05-19T21:37:42.251Z,102268.05
2023-05-19T21:40:29.060Z,102272.01
2023-05-19T21:43:16.048Z,102270.11
2023-05-19T21:46:03.164Z,102271.27
2023-05-19T21:48:49.735Z,102271.11
2023-05-19T21:51:36.848Z,102275.23
2023-05-19T21:54:23.510Z,102276.28
2023-05-19T21:57:12.376Z,102274.10
2023-05-19T21:59:58.959Z,102279.46
2023-05-19T22:02:45.700Z,102277.61
2023-05-19T22:05:35.198Z,102276.25
2023-05-19T22:08:22.814Z,102275.95
2023-05-19T22:11:09.555Z,102275.02
2023-05-19T22:13:56.386Z,102272.17
2023-05-19T22:16:43.728Z,102274.39
2023-05-19T22:19:30.417Z,102273.07
2023-05-19T22:22:17.452Z,102274.48
2023-05-19T22:25:04.058Z,102272.99
2023-05-19T22:27:50.742Z,102274.37
2023-05-19T22:30:41.122Z,102272.77
2023-05-19T22:33:27.967Z,102278.95
2023-05-19T22:36:16.230Z,102274.42
2023-05-19T22:39:02.556Z,102274.16
2023-05-19T22:41:49.149Z,102276.23
2023-05-19T22:44:35.825Z,102263.41
2023-05-19T22:47:22.144Z,102273.92
2023-05-19T22:50:10.179Z,102267.05
2023-05-19T22:52:56.575Z,102260.41
2023-05-19T22:55:43.190Z,102262.49
2023-05-19T22:58:30.227Z,102261.58
2023-05-19T23:01:17.197Z,102261.10
2023-05-19T23:04:04.141Z,102259.25
2023-05-19T23:06:50.975Z,102258.05
2023-05-19T23:09:37.541Z,102261.36
2023-05-19T23:12:24.278Z,102262.77
2023-05-19T23:15:11.293Z,102262.70
2023-05-19T23:17:57.928Z,102261.02
2023-05-19T23:20:44.853Z,102258.23
2023-05-19T23:23:31.519Z,102259.89
2023-05-19T23:26:17.982Z,102262.86
2023-05-19T23:29:04.667Z,102265.01
2023-05-19T23:31:51.202Z,102265.33
2023-05-19T23:34:38.047Z,102265.87
2023-05-19T23:37:24.611Z,102264.94
2023-05-19T23:40:12.065Z,102268.30
2023-05-19T23:42:58.537Z,102270.56
2023-05-19T23:45:45.202Z,102266.23
2023-05-19T23:48:31.624Z,102268.95
2023-05-19T23:51:17.963Z,102271.30
2023-05-19T23:54:04.555Z,102269.79
2023-05-19T23:56:51.361Z,102267.77
2023-05-19T23:59:37.791Z,102268.08
